Time;durP1;ratioP1;P1;durP2;ratioP2;P2;SDS_P1;SDS_P2;PMS_P1;PMS_P2;Temp;Humidity;BMP_temperature;BMP_pressure;BME280_temperature;BME280_humidity;BME280_pressure;Samples;Min_cycle;Max_cycle;Signal;HPM_P1;HPM_P2
2023/08/10 00:05:32;;;;;;;6.88;2.70;;;;;;;13.88;71.08;101475.34;15677742;28;20069;-48
2023/08/10 00:13:08;;;;;;;8.07;3.00;;;;;;;13.55;72.38;101488.94;15669618;22;20052;-52
2023/08/10 00:20:42;;;;;;;4.43;2.78;;;;;;;14.00;70.81;101494.41;15630331;28;20042;-53
2023/08/10 00:28:16;;;;;;;7.55;2.78;;;;;;;13.94;71.42;101493.38;15614642;28;20060;-51
2023/08/10 00:35:50;;;;;;;5.65;3.13;;;;;;;14.00;70.84;101486.31;15614031;28;20049;-51
2023/08/10 00:43:27;;;;;;;5.18;3.28;;;;;;;14.04;71.01;101482.13;15614245;28;20098;-52
2023/08/10 00:51:01;;;;;;;4.20;2.88;;;;;;;13.90;70.50;101489.47;15626063;28;20076;-52
2023/08/10 00:58:36;;;;;;;5.53;2.83;;;;;;;13.87;70.42;101484.47;15625766;28;20109;-51
2023/08/10 01:06:16;;;;;;;5.30;2.97;;;;;;;13.65;70.88;101493.88;15609552;28;20038;-51
2023/08/10 01:14:03;;;;;;;6.25;3.00;;;;;;;13.31;71.18;101495.84;15625657;28;20076;-52
2023/08/10 01:21:44;;;;;;;7.28;3.10;;;;;;;13.43;70.90;101496.88;15625613;28;20053;-51
2023/08/10 01:29:22;;;;;;;8.40;3.25;;;;;;;13.40;70.80;101508.06;15624977;28;20133;-54
2023/08/10 01:36:57;;;;;;;4.47;2.90;;;;;;;13.56;70.71;101503.25;15624777;28;20042;-52
2023/08/10 01:44:32;;;;;;;7.50;3.15;;;;;;;13.32;71.17;101512.84;15607171;28;20450;-54
2023/08/10 01:52:08;;;;;;;4.70;2.78;;;;;;;13.34;70.91;101508.91;15622589;28;20502;-53
2023/08/10 01:59:43;;;;;;;4.13;2.55;;;;;;;13.00;71.89;101513.44;15621585;28;20041;-52
2023/08/10 02:07:16;;;;;;;5.80;2.70;;;;;;;12.87;71.43;101515.28;15605904;28;20079;-53
2023/08/10 02:14:51;;;;;;;5.88;2.88;;;;;;;12.99;70.98;101516.34;15587197;28;20394;-52
2023/08/10 02:22:23;;;;;;;4.00;2.80;;;;;;;12.87;71.66;101512.59;15559915;28;20065;-53
2023/08/10 02:29:58;;;;;;;6.13;3.22;;;;;;;12.98;71.03;101509.31;15559367;28;20066;-51
2023/08/10 02:37:32;;;;;;;6.93;3.05;;;;;;;12.54;72.20;101509.88;15558952;28;20038;-54
2023/08/10 02:45:10;;;;;;;6.15;2.90;;;;;;;12.68;71.55;101515.09;15575248;28;20095;-52
2023/08/10 02:52:51;;;;;;;7.93;3.22;;;;;;;12.49;71.69;101518.56;15606132;28;20049;-52
2023/08/10 03:00:25;;;;;;;9.15;3.63;;;;;;;12.40;71.88;101519.78;15620341;28;20049;-53
2023/08/10 03:08:01;;;;;;;4.63;2.92;;;;;;;12.37;71.23;101520.19;15618128;28;20079;-53
2023/08/10 03:15:36;;;;;;;5.75;2.80;;;;;;;12.41;71.13;101530.38;15617479;28;20045;-54
2023/08/10 03:23:09;;;;;;;5.40;2.92;;;;;;;12.26;71.83;101526.97;15600679;28;20049;-52
2023/08/10 03:30:46;;;;;;;6.10;3.20;;;;;;;12.26;71.53;101540.44;15616400;28;20099;-53
2023/08/10 03:38:20;;;;;;;4.00;2.90;;;;;;;12.22;71.97;101531.13;15616215;28;20053;-55
2023/08/10 03:45:55;;;;;;;4.80;2.70;;;;;;;12.35;71.24;101547.31;15616047;28;20033;-54
2023/08/10 03:53:28;;;;;;;4.00;2.65;;;;;;;12.25;71.84;101549.56;15616260;28;20050;-53
2023/08/10 04:01:06;;;;;;;;;;;;;;;11.91;73.99;101567.41;15615586;28;20037;-53
2023/08/10 04:08:40;;;;;;;5.78;3.28;;;;;;;12.00;74.36;101565.41;15614743;28;19925;-53
2023/08/10 04:16:15;;;;;;;5.90;3.40;;;;;;;12.05;74.27;101575.56;15568245;28;20038;-52
2023/08/10 04:23:48;;;;;;;7.03;3.55;;;;;;;12.34;73.89;101571.75;15553184;28;20048;-53
2023/08/10 04:31:23;;;;;;;6.93;3.57;;;;;;;12.36;74.29;101575.09;15555426;28;20053;-52
2023/08/10 04:38:56;;;;;;;5.53;3.88;;;;;;;12.79;72.83;101572.94;15555181;28;20387;-53
2023/08/10 04:46:32;;;;;;;12.48;3.83;;;;;;;12.86;72.22;101579.13;15553732;28;20042;-55
2023/08/10 04:54:05;;;;;;;9.52;3.50;;;;;;;12.63;73.87;101578.66;15553857;28;20070;-53
2023/08/10 05:01:39;;;;;;;;;;;;;;;13.07;74.73;101586.22;15554014;28;20509;-53
2023/08/10 05:09:13;;;;;;;6.68;3.88;;;;;;;13.19;74.93;101581.88;15552288;28;20425;-54
2023/08/10 05:16:47;;;;;;;9.52;4.18;;;;;;;13.94;74.65;101606.75;15604554;28;20626;-55
2023/08/10 05:24:21;;;;;;;7.72;3.70;;;;;;;14.04;74.29;101596.34;15613388;28;20168;-54
2023/08/10 05:31:56;;;;;;;14.13;4.35;;;;;;;14.19;73.62;101603.34;15616558;28;20553;-53
2023/08/10 05:39:29;;;;;;;7.38;4.07;;;;;;;14.73;73.97;101612.91;15624268;28;20056;-55
2023/08/10 05:47:03;;;;;;;6.93;3.65;;;;;;;15.16;72.79;101623.88;15624440;28;20045;-51
2023/08/10 05:54:36;;;;;;;9.07;3.95;;;;;;;14.97;72.61;101627.53;15623434;28;20042;-51
2023/08/10 06:02:11;;;;;;;9.57;4.05;;;;;;;15.25;71.89;101636.09;15623427;28;20072;-55
2023/08/10 06:09:45;;;;;;;8.90;3.45;;;;;;;14.63;73.66;101645.78;15623231;28;20072;-54
2023/08/10 06:17:21;;;;;;;8.20;3.42;;;;;;;15.04;72.71;101636.41;15567157;28;20530;-55
2023/08/10 06:24:54;;;;;;;7.13;3.33;;;;;;;15.28;71.30;101645.63;15561526;28;20486;-52
2023/08/10 06:32:31;;;;;;;6.65;3.10;;;;;;;15.68;69.50;101642.63;15545082;28;20052;-54
2023/08/10 06:40:08;;;;;;;5.88;2.60;;;;;;;16.16;68.58;101641.94;15558734;28;20050;-55
2023/08/10 06:47:43;;;;;;;5.00;2.05;;;;;;;16.38;67.16;101639.63;15559358;28;20045;-55
2023/08/10 06:55:16;;;;;;;10.93;2.53;;;;;;;17.31;63.53;101653.59;15558654;28;20053;-55
2023/08/10 07:02:53;;;;;;;;;;;;;;;17.19;64.11;101651.88;15557131;28;20141;-55
2023/08/10 07:10:27;;;;;;;8.82;1.85;;;;;;;17.41;64.90;101650.28;15556525;28;19922;-55
2023/08/10 07:18:01;;;;;;;;;;;;;;;18.40;60.59;101655.84;15557285;28;20046;-53
2023/08/10 07:25:37;;;;;;;7.32;1.55;;;;;;;17.82;57.50;101665.72;15557576;28;19928;-54
2023/08/10 07:33:11;;;;;;;9.07;1.77;;;;;;;17.70;58.10;101664.03;15556869;28;20100;-56
2023/08/10 07:40:44;;;;;;;6.45;1.55;;;;;;;17.32;57.78;101671.50;15556324;28;20549;-53
2023/08/10 07:48:19;;;;;;;5.78;1.23;;;;;;;17.99;54.81;101675.84;15554647;28;20525;-52
2023/08/10 07:55:52;;;;;;;9.55;1.75;;;;;;;18.83;52.53;101676.31;15555501;28;20521;-54
2023/08/10 08:03:27;;;;;;;7.05;1.40;;;;;;;18.22;54.20;101678.56;15553889;28;20046;-52
2023/08/10 08:11:00;;;;;;;7.68;1.63;;;;;;;18.70;54.70;101682.88;15560106;28;20100;-51
2023/08/10 08:18:44;;;;;;;8.65;1.48;;;;;;;19.63;51.73;101680.75;15615902;28;20064;-52
2023/08/10 08:26:20;;;;;;;10.38;1.58;;;;;;;20.04;50.66;101678.66;15598015;28;20053;-54
2023/08/10 08:33:55;;;;;;;6.72;1.40;;;;;;;19.42;51.58;101676.84;15614167;28;20050;-53
2023/08/10 08:41:36;;;;;;;5.88;1.30;;;;;;;19.31;49.99;101670.41;15597596;28;20072;-53
2023/08/10 08:49:11;;;;;;;10.95;1.42;;;;;;;19.46;48.50;101672.56;15614503;28;20041;-50
2023/08/10 08:56:45;;;;;;;7.65;1.00;;;;;;;19.72;48.58;101676.56;15615595;28;20565;-54
2023/08/10 09:04:21;;;;;;;5.10;1.00;;;;;;;19.96;48.18;101685.38;15614330;28;20072;-54
2023/08/10 09:11:54;;;;;;;5.32;1.15;;;;;;;19.26;47.06;101674.97;15612064;28;20050;-51
2023/08/10 09:19:29;;;;;;;6.18;1.30;;;;;;;18.53;49.60;101662.91;15563408;28;20049;-54
2023/08/10 09:27:03;;;;;;;13.52;1.42;;;;;;;19.60;51.28;101676.66;15563839;28;20050;-55
2023/08/10 09:34:37;;;;;;;6.18;1.30;;;;;;;20.90;48.51;101659.88;15580836;28;20045;-50
2023/08/10 09:42:10;;;;;;;6.75;1.15;;;;;;;20.02;49.01;101670.75;15669379;28;20140;-52
2023/08/10 09:49:55;;;;;;;6.53;1.30;;;;;;;20.61;46.20;101678.38;15686626;28;20524;-53
2023/08/10 09:57:29;;;;;;;3.85;1.15;;;;;;;19.77;47.00;101689.44;15686990;28;20052;-50
2023/08/10 10:05:06;;;;;;;7.07;1.27;;;;;;;21.26;47.55;101669.22;15685208;28;20076;-54
2023/08/10 10:12:39;;;;;;;5.68;1.25;;;;;;;20.74;46.56;101672.53;15666886;28;20103;-52
2023/08/10 10:20:14;;;;;;;3.95;1.30;;;;;;;18.88;48.25;101690.00;15620953;28;20049;-55
2023/08/10 10:27:49;;;;;;;4.47;1.33;;;;;;;20.28;46.65;101684.72;15621920;28;20049;-51
2023/08/10 10:35:32;;;;;;;5.68;1.05;;;;;;;20.96;46.20;101658.03;15621878;28;20526;-57
2023/08/10 10:43:06;;;;;;;6.75;1.42;;;;;;;22.38;43.95;101661.88;15622002;28;20076;-54
2023/08/10 10:50:44;;;;;;;4.93;1.23;;;;;;;20.52;46.75;101667.09;15621765;28;20095;-52
2023/08/10 10:58:17;;;;;;;6.90;1.40;;;;;;;20.50;45.63;101655.59;15619392;28;20049;-52
2023/08/10 11:05:52;;;;;;;6.38;1.35;;;;;;;22.19;43.51;101638.81;15620180;28;20041;-53
2023/08/10 11:13:29;;;;;;;3.92;1.10;;;;;;;22.92;44.08;101636.91;15595100;28;20737;-53
2023/08/10 11:21:07;;;;;;;5.93;1.52;;;;;;;23.95;41.59;101623.19;15557846;28;20065;-54
2023/08/10 11:28:42;;;;;;;6.43;1.60;;;;;;;23.43;40.65;101625.16;15556104;28;20502;-53
2023/08/10 11:36:18;;;;;;;4.80;1.48;;;;;;;23.84;39.75;101617.72;15557703;28;20487;-56
2023/08/10 11:43:51;;;;;;;6.03;1.05;;;;;;;24.58;39.81;101607.03;15557332;28;20042;-56
2023/08/10 11:51:32;;;;;;;6.40;1.33;;;;;;;22.50;38.84;101612.41;15555717;28;20053;-50
2023/08/10 11:59:11;;;;;;;;;;;;;;;22.02;41.91;101610.81;15556328;28;20050;-53
2023/08/10 12:06:45;;;;;;;8.52;1.38;;;;;;;21.70;42.04;101606.25;15554476;28;19984;-52
2023/08/10 12:14:19;;;;;;;5.45;1.33;;;;;;;21.39;45.59;101610.66;15605910;22;20392;-70
2023/08/10 12:21:55;;;;;;;4.90;1.10;;;;;;;22.41;41.31;101594.88;15640838;28;20049;-70
2023/08/10 12:29:28;;;;;;;5.13;1.30;;;;;;;21.44;45.14;101598.97;15674317;28;20045;-70
2023/08/10 12:37:03;;;;;;;5.60;1.10;;;;;;;23.59;43.58;101604.84;15675362;28;20458;-70
2023/08/10 12:44:36;;;;;;;7.05;1.52;;;;;;;23.80;40.87;101594.69;15683629;28;20041;-72
2023/08/10 12:52:10;;;;;;;4.22;1.17;;;;;;;23.92;40.34;101587.00;15686070;28;20051;-70
2023/08/10 12:59:43;;;;;;;7.25;1.63;;;;;;;24.85;39.19;101587.34;15687024;28;20147;-71
2023/08/10 13:07:18;;;;;;;5.85;1.35;;;;;;;24.39;37.97;101580.25;15686391;28;20248;-70
2023/08/10 13:14:55;;;;;;;4.40;1.30;;;;;;;24.50;37.84;101585.69;15685765;28;20049;-71
2023/08/10 13:22:35;;;;;;;4.43;1.38;;;;;;;25.53;36.55;101572.81;15686297;28;20061;-70
2023/08/10 13:30:09;;;;;;;4.85;1.38;;;;;;;26.12;35.60;101571.63;15684428;28;20059;-70
2023/08/10 13:37:44;;;;;;;4.43;1.30;;;;;;;24.02;38.28;101575.19;15685076;28;20559;-69
2023/08/10 13:45:17;;;;;;;5.40;1.17;;;;;;;22.42;39.90;101583.63;15706998;28;20045;-69
2023/08/10 13:52:51;;;;;;;6.47;1.30;;;;;;;23.76;40.02;101570.88;15683242;28;20465;-70
2023/08/10 14:00:25;;;;;;;6.57;1.30;;;;;;;23.22;40.85;101571.47;15682571;28;20056;-70
2023/08/10 14:08:00;;;;;;;4.80;1.13;;;;;;;23.16;40.53;101576.94;15683202;28;20045;-70
2023/08/10 14:15:34;;;;;;;5.05;1.40;;;;;;;22.34;40.57;101569.69;15639897;28;20491;-69
2023/08/10 14:23:08;;;;;;;4.75;1.38;;;;;;;23.79;39.11;101568.41;15603133;28;20137;-69
2023/08/10 14:30:41;;;;;;;6.05;1.48;;;;;;;23.43;40.27;101576.66;15618882;28;20136;-70
2023/08/10 14:38:16;;;;;;;6.57;1.17;;;;;;;22.86;40.71;101574.19;15620397;28;20050;-71
2023/08/10 14:45:49;;;;;;;5.60;1.20;;;;;;;22.58;39.66;101570.84;15644519;23;20045;-51
2023/08/10 14:53:23;;;;;;;6.20;1.30;;;;;;;22.30;39.97;101571.31;15681052;28;20106;-48
2023/08/10 15:00:56;;;;;;;7.72;1.58;;;;;;;22.69;40.48;101568.13;15680774;28;20099;-53
2023/08/10 15:08:31;;;;;;;4.95;1.20;;;;;;;22.39;40.12;101569.69;15680673;28;20045;-52
2023/08/10 15:16:05;;;;;;;5.03;1.23;;;;;;;21.87;40.18;101578.75;15680078;28;20049;-51
2023/08/10 15:23:39;;;;;;;3.35;1.10;;;;;;;22.06;41.20;101566.28;15680358;28;20064;-50
2023/08/10 15:31:12;;;;;;;13.07;1.45;;;;;;;22.76;41.48;101572.25;15678917;28;20044;-49
2023/08/10 15:38:46;;;;;;;4.63;1.30;;;;;;;22.53;42.94;101567.28;15679788;28;20540;-50
2023/08/10 15:46:20;;;;;;;8.20;1.40;;;;;;;22.82;43.15;101567.59;15678067;28;20041;-51
2023/08/10 15:53:55;;;;;;;5.35;1.40;;;;;;;22.71;40.92;101569.50;15679443;28;20094;-50
2023/08/10 16:01:30;;;;;;;6.85;1.13;;;;;;;22.50;41.62;101570.53;15678423;28;20037;-51
2023/08/10 16:09:05;;;;;;;7.32;1.40;;;;;;;22.51;40.15;101578.47;15678757;28;20052;-48
2023/08/10 16:16:39;;;;;;;5.53;1.63;;;;;;;22.53;40.63;101581.78;15625682;28;20406;-49
2023/08/10 16:24:13;;;;;;;4.07;1.33;;;;;;;22.39;41.77;101583.38;15614711;28;20056;-51
2023/08/10 16:31:46;;;;;;;5.75;1.35;;;;;;;21.91;41.33;101588.03;15614582;28;20060;-51
2023/08/10 16:39:21;;;;;;;7.80;1.10;;;;;;;21.96;41.16;101592.72;15615806;28;20057;-53
2023/08/10 16:46:54;;;;;;;6.07;1.50;;;;;;;22.01;40.24;101574.44;15613929;28;20092;-48
2023/08/10 16:54:28;;;;;;;6.63;2.55;;;;;;;21.94;42.16;101573.84;15616229;28;20598;-49
2023/08/10 17:02:01;;;;;;;5.38;1.70;;;;;;;22.14;42.04;101575.88;15613454;28;20521;-49
2023/08/10 17:09:37;;;;;;;9.27;1.40;;;;;;;22.21;42.92;101576.47;15613288;28;20041;-51
2023/08/10 17:17:10;;;;;;;6.85;1.38;;;;;;;22.08;43.60;101579.66;15669244;28;20065;-50
2023/08/10 17:24:44;;;;;;;8.18;1.27;;;;;;;22.02;42.59;101592.50;15674256;28;20044;-50
2023/08/10 17:32:19;;;;;;;4.80;1.40;;;;;;;21.92;42.69;101589.72;15684986;28;20118;-52
2023/08/10 17:39:53;;;;;;;6.10;1.67;;;;;;;21.84;45.24;101593.75;15687277;28;20057;-50
2023/08/10 17:47:27;;;;;;;5.95;1.48;;;;;;;21.70;46.44;101594.50;15687193;28;20524;-52
2023/08/10 17:55:05;;;;;;;3.97;1.38;;;;;;;21.34;47.76;101599.69;15685659;28;20056;-47
2023/08/10 18:02:39;;;;;;;4.47;1.88;;;;;;;21.12;47.97;101597.03;15684218;28;20446;-51
2023/08/10 18:10:13;;;;;;;7.88;2.15;;;;;;;20.88;49.49;101604.72;15683537;28;20049;-50
2023/08/10 18:17:46;;;;;;;4.85;2.15;;;;;;;20.60;49.85;101609.34;15623828;28;20052;-48
2023/08/10 18:25:21;;;;;;;6.07;2.00;;;;;;;20.45;49.91;101609.16;15622404;28;20491;-52
2023/08/10 18:32:54;;;;;;;7.75;2.50;;;;;;;20.12;50.91;101613.66;15622479;28;20073;-49
2023/08/10 18:40:37;;;;;;;6.53;2.97;;;;;;;19.56;53.50;101618.28;15621810;28;20045;-51
2023/08/10 18:48:10;;;;;;;4.70;2.42;;;;;;;19.36;53.49;101616.06;15621019;28;20050;-49
2023/08/10 18:55:49;;;;;;;7.15;2.40;;;;;;;19.09;54.41;101625.94;15619480;28;20037;-50
2023/08/10 19:03:22;;;;;;;7.03;2.25;;;;;;;18.70;57.29;101631.22;15618706;28;20038;-48
2023/08/10 19:10:56;;;;;;;;;;;;;;;18.63;56.68;101641.34;15623625;28;20044;-49
2023/08/10 19:18:29;;;;;;;5.93;3.17;;;;;;;18.49;56.56;101642.72;15681282;28;19924;-49
2023/08/10 19:26:03;;;;;;;5.97;2.70;;;;;;;18.25;57.28;101636.50;15681106;28;20047;-53
2023/08/10 19:33:36;;;;;;;8.20;3.00;;;;;;;18.01;58.12;101641.16;15679564;28;20057;-50
2023/08/10 19:41:11;;;;;;;;;;;;;;;17.85;59.43;101645.38;15680366;28;20489;-48
2023/08/10 19:48:44;;;;;;;5.43;3.28;;;;;;;17.52;60.94;101641.34;15679032;28;19928;-48
2023/08/10 19:56:18;;;;;;;7.78;3.65;;;;;;;17.22;61.81;101656.88;15678169;28;20041;-51
2023/08/10 20:03:51;;;;;;;6.78;3.30;;;;;;;17.15;61.53;101651.53;15661036;28;20107;-49
2023/08/10 20:11:25;;;;;;;10.93;3.85;;;;;;;16.98;62.45;101664.94;15669636;28;20457;-48
2023/08/10 20:18:59;;;;;;;9.02;3.45;;;;;;;16.99;62.13;101663.03;15615817;28;20037;-48
2023/08/10 20:26:34;;;;;;;7.72;3.38;;;;;;;16.64;63.60;101676.38;15616362;28;20478;-48
2023/08/10 20:34:08;;;;;;;7.05;3.60;;;;;;;16.68;63.38;101669.47;15614272;28;20049;-50
2023/08/10 20:41:44;;;;;;;11.75;4.45;;;;;;;16.41;64.45;101677.91;15615438;28;20041;-47
2023/08/10 20:49:17;;;;;;;10.45;4.72;;;;;;;16.47;63.56;101681.63;15645498;28;20060;-51
2023/08/10 20:56:51;;;;;;;13.40;4.43;;;;;;;16.24;64.42;101680.41;15676572;28;20394;-49
2023/08/10 21:04:26;;;;;;;9.65;4.45;;;;;;;16.01;65.34;101675.63;15681928;28;20490;-49
2023/08/10 21:12:01;;;;;;;8.63;4.30;;;;;;;16.00;65.45;101689.41;15688852;28;20045;-51
2023/08/10 21:19:34;;;;;;;9.98;4.90;;;;;;;15.88;66.46;101686.59;15686899;28;20127;-49
2023/08/10 21:27:09;;;;;;;11.38;5.10;;;;;;;15.81;66.20;101683.13;15686370;28;20055;-49
2023/08/10 21:34:42;;;;;;;9.35;5.28;;;;;;;15.69;66.77;101682.19;15687692;28;20049;-48
2023/08/10 21:42:19;;;;;;;10.68;4.45;;;;;;;15.63;66.65;101699.28;15687411;28;20077;-47
2023/08/10 21:49:52;;;;;;;8.02;4.40;;;;;;;15.44;67.21;101698.38;15684991;28;20045;-47
2023/08/10 21:57:26;;;;;;;7.88;4.75;;;;;;;15.27;67.95;101693.47;15686374;28;20041;-48
2023/08/10 22:04:59;;;;;;;9.63;4.88;;;;;;;15.28;67.68;101687.00;15684758;28;20497;-47
2023/08/10 22:12:35;;;;;;;14.82;5.50;;;;;;;15.20;68.12;101690.00;15666142;28;20518;-47
2023/08/10 22:20:10;;;;;;;10.60;5.45;;;;;;;15.14;68.19;101688.16;15622690;28;20050;-47
2023/08/10 22:27:45;;;;;;;8.13;5.20;;;;;;;15.12;67.89;101690.25;15622390;28;20494;-47
2023/08/10 22:35:18;;;;;;;11.32;6.10;;;;;;;15.06;68.42;101696.50;15620910;28;20441;-48
2023/08/10 22:42:52;;;;;;;;;;;;;;;14.88;68.24;101696.41;15620688;28;20061;-48
2023/08/10 22:50:25;;;;;;;11.68;6.85;;;;;;;14.77;68.50;101695.19;15619689;28;19921;-47
2023/08/10 22:57:59;;;;;;;10.00;6.33;;;;;;;14.51;68.71;101682.63;15604283;28;20044;-47
2023/08/10 23:05:33;;;;;;;8.57;5.80;;;;;;;14.71;68.23;101707.69;15620053;28;20303;-48
2023/08/10 23:13:08;;;;;;;8.93;5.20;;;;;;;14.48;69.17;101701.97;15639869;28;20502;-50
2023/08/10 23:20:41;;;;;;;9.07;5.25;;;;;;;14.41;69.15;101701.09;15681072;28;20047;-52
2023/08/10 23:28:17;;;;;;;9.13;5.85;;;;;;;14.39;68.81;101698.63;15679335;28;20048;-53
2023/08/10 23:35:51;;;;;;;11.80;5.68;;;;;;;14.43;68.33;101699.88;15680605;28;20103;-51
2023/08/10 23:43:25;;;;;;;8.85;4.93;;;;;;;14.29;69.00;101699.06;15679493;28;20048;-50
2023/08/10 23:50:58;;;;;;;9.30;4.57;;;;;;;14.14;69.02;101697.66;15678653;28;20041;-48
2023/08/10 23:58:32;;;;;;;7.30;4.78;;;;;;;14.11;69.00;101696.19;15679346;28;20044;-48
